sensor_id;sensor_type;location;lat;lon;timestamp;pressure;altitude;pressure_sealevel;temperature;humidity
78685;BME280;68002;52.310;6.990;2023-04-24T00:01:11;99505.00;;;10.06;80.13
78685;BME280;68002;52.310;6.990;2023-04-24T00:03:36;99483.31;;;10.01;79.73
78685;BME280;68002;52.310;6.990;2023-04-24T00:06:01;99490.34;;;10.10;79.40
78685;BME280;68002;52.310;6.990;2023-04-24T00:08:27;99509.72;;;10.13;79.43
78685;BME280;68002;52.310;6.990;2023-04-24T00:10:52;99508.34;;;10.08;79.19
78685;BME280;68002;52.310;6.990;2023-04-24T00:13:17;99500.34;;;10.08;77.89
78685;BME280;68002;52.310;6.990;2023-04-24T00:15:42;99502.69;;;10.20;77.67
78685;BME280;68002;52.310;6.990;2023-04-24T00:18:08;99498.66;;;10.07;77.83
78685;BME280;68002;52.310;6.990;2023-04-24T00:20:33;99506.66;;;10.07;79.03
78685;BME280;68002;52.310;6.990;2023-04-24T00:22:59;99512.72;;;10.18;78.78
78685;BME280;68002;52.310;6.990;2023-04-24T00:25:24;99517.56;;;10.14;78.83
78685;BME280;68002;52.310;6.990;2023-04-24T00:27:49;99505.38;;;10.11;77.99
78685;BME280;68002;52.310;6.990;2023-04-24T00:30:14;99526.41;;;10.23;77.25
78685;BME280;68002;52.310;6.990;2023-04-24T00:32:40;99518.22;;;10.24;77.75
78685;BME280;68002;52.310;6.990;2023-04-24T00:35:05;99510.38;;;10.23;77.93
78685;BME280;68002;52.310;6.990;2023-04-24T00:37:31;99508.72;;;10.22;77.95
78685;BME280;68002;52.310;6.990;2023-04-24T00:39:56;99522.88;;;10.22;79.21
78685;BME280;68002;52.310;6.990;2023-04-24T00:42:21;99499.84;;;10.21;78.76
78685;BME280;68002;52.310;6.990;2023-04-24T00:44:47;99507.53;;;10.24;79.59
78685;BME280;68002;52.310;6.990;2023-04-24T00:47:12;99461.06;;;10.33;79.70
78685;BME280;68002;52.310;6.990;2023-04-24T00:49:37;99517.88;;;10.27;79.50
78685;BME280;68002;52.310;6.990;2023-04-24T00:52:03;99502.69;;;10.20;79.99
78685;BME280;68002;52.310;6.990;2023-04-24T00:54:28;99518.03;;;10.26;79.75
78685;BME280;68002;52.310;6.990;2023-04-24T00:56:53;99517.53;;;10.30;78.96
78685;BME280;68002;52.310;6.990;2023-04-24T00:59:19;99517.03;;;10.27;79.43
78685;BME280;68002;52.310;6.990;2023-04-24T01:01:44;99511.19;;;10.31;78.92
78685;BME280;68002;52.310;6.990;2023-04-24T01:04:11;99503.50;;;10.28;79.14
78685;BME280;68002;52.310;6.990;2023-04-24T01:06:38;99511.84;;;10.33;78.98
78685;BME280;68002;52.310;6.990;2023-04-24T01:09:04;99504.00;;;10.32;79.50
78685;BME280;68002;52.310;6.990;2023-04-24T01:11:29;99509.88;;;10.27;80.15
78685;BME280;68002;52.310;6.990;2023-04-24T01:13:55;99514.56;;;10.25;80.18
78685;BME280;68002;52.310;6.990;2023-04-24T01:16:21;99521.06;;;10.23;79.71
78685;BME280;68002;52.310;6.990;2023-04-24T01:18:46;99516.72;;;10.13;80.78
78685;BME280;68002;52.310;6.990;2023-04-24T01:21:14;99510.72;;;10.20;80.33
78685;BME280;68002;52.310;6.990;2023-04-24T01:23:40;99506.72;;;10.16;79.80
78685;BME280;68002;52.310;6.990;2023-04-24T01:26:05;99504.69;;;10.18;80.11
78685;BME280;68002;52.310;6.990;2023-04-24T01:28:30;99509.22;;;10.25;79.26
78685;BME280;68002;52.310;6.990;2023-04-24T01:30:56;99506.53;;;10.17;80.36
78685;BME280;68002;52.310;6.990;2023-04-24T01:33:21;99502.34;;;10.14;80.46
78685;BME280;68002;52.310;6.990;2023-04-24T01:35:48;99499.19;;;10.19;80.01
78685;BME280;68002;52.310;6.990;2023-04-24T01:38:13;99494.66;;;10.28;79.52
78685;BME280;68002;52.310;6.990;2023-04-24T01:40:38;99512.69;;;10.26;79.81
78685;BME280;68002;52.310;6.990;2023-04-24T01:43:04;99517.88;;;10.19;80.31
78685;BME280;68002;52.310;6.990;2023-04-24T01:45:29;99512.53;;;10.11;80.94
78685;BME280;68002;52.310;6.990;2023-04-24T01:47:55;99522.06;;;10.13;81.22
78685;BME280;68002;52.310;6.990;2023-04-24T01:50:20;99509.50;;;10.06;81.21
78685;BME280;68002;52.310;6.990;2023-04-24T01:52:45;99494.16;;;10.00;81.41
78685;BME280;68002;52.310;6.990;2023-04-24T01:55:11;99505.19;;;9.97;81.90
78685;BME280;68002;52.310;6.990;2023-04-24T01:57:36;99510.34;;;9.98;82.27
78685;BME280;68002;52.310;6.990;2023-04-24T02:00:03;99499.34;;;9.93;82.09
78685;BME280;68002;52.310;6.990;2023-04-24T02:02:28;99501.00;;;10.02;82.41
78685;BME280;68002;52.310;6.990;2023-04-24T02:04:53;99500.69;;;9.97;81.72
78685;BME280;68002;52.310;6.990;2023-04-24T02:07:19;99497.66;;;10.08;81.54
78685;BME280;68002;52.310;6.990;2023-04-24T02:09:44;99487.81;;;10.01;82.12
78685;BME280;68002;52.310;6.990;2023-04-24T02:12:09;99499.66;;;9.98;81.79
78685;BME280;68002;52.310;6.990;2023-04-24T02:14:34;99497.19;;;10.05;81.37
78685;BME280;68002;52.310;6.990;2023-04-24T02:17:00;99500.66;;;10.05;82.10
78685;BME280;68002;52.310;6.990;2023-04-24T02:19:25;99502.69;;;10.11;80.94
78685;BME280;68002;52.310;6.990;2023-04-24T02:21:50;99511.03;;;10.08;81.72
78685;BME280;68002;52.310;6.990;2023-04-24T02:24:15;99496.50;;;10.11;81.73
78685;BME280;68002;52.310;6.990;2023-04-24T02:26:40;99507.38;;;10.09;81.43
78685;BME280;68002;52.310;6.990;2023-04-24T02:29:06;99512.19;;;10.06;82.13
78685;BME280;68002;52.310;6.990;2023-04-24T02:31:31;99512.34;;;10.04;82.45
78685;BME280;68002;52.310;6.990;2023-04-24T02:33:56;99511.69;;;10.02;83.19
78685;BME280;68002;52.310;6.990;2023-04-24T02:36:21;99506.84;;;9.90;84.28
78685;BME280;68002;52.310;6.990;2023-04-24T02:38:46;99508.19;;;9.86;83.95
78685;BME280;68002;52.310;6.990;2023-04-24T02:41:12;99509.03;;;9.86;84.11
78685;BME280;68002;52.310;6.990;2023-04-24T02:43:37;99518.88;;;9.86;84.03
78685;BME280;68002;52.310;6.990;2023-04-24T02:46:02;99510.53;;;9.81;84.65
78685;BME280;68002;52.310;6.990;2023-04-24T02:48:28;99503.69;;;9.78;85.42
78685;BME280;68002;52.310;6.990;2023-04-24T02:50:53;99497.00;;;9.74;85.21
78685;BME280;68002;52.310;6.990;2023-04-24T02:53:18;99501.50;;;9.82;85.66
78685;BME280;68002;52.310;6.990;2023-04-24T02:55:43;99496.50;;;9.71;86.04
78685;BME280;68002;52.310;6.990;2023-04-24T02:58:09;99497.16;;;9.73;85.40
78685;BME280;68002;52.310;6.990;2023-04-24T03:00:34;99504.38;;;9.72;85.42
78685;BME280;68002;52.310;6.990;2023-04-24T03:02:59;99508.53;;;9.67;85.47
78685;BME280;68002;52.310;6.990;2023-04-24T03:05:24;99502.53;;;9.65;85.56
78685;BME280;68002;52.310;6.990;2023-04-24T03:07:49;99510.16;;;9.60;86.20
78685;BME280;68002;52.310;6.990;2023-04-24T03:10:15;99513.00;;;9.58;86.27
78685;BME280;68002;52.310;6.990;2023-04-24T03:12:40;99516.19;;;9.54;85.67
78685;BME280;68002;52.310;6.990;2023-04-24T03:15:06;99484.97;;;9.54;85.82
78685;BME280;68002;52.310;6.990;2023-04-24T03:17:31;99498.00;;;9.57;85.25
78685;BME280;68002;52.310;6.990;2023-04-24T03:19:56;99507.69;;;9.50;86.14
78685;BME280;68002;52.310;6.990;2023-04-24T03:22:21;99521.03;;;9.50;85.47
78685;BME280;68002;52.310;6.990;2023-04-24T03:24:47;99511.84;;;9.45;85.56
78685;BME280;68002;52.310;6.990;2023-04-24T03:27:12;99505.66;;;9.44;86.21
78685;BME280;68002;52.310;6.990;2023-04-24T03:29:37;99497.16;;;9.41;86.81
78685;BME280;68002;52.310;6.990;2023-04-24T03:32:02;99517.31;;;9.35;86.50
78685;BME280;68002;52.310;6.990;2023-04-24T03:34:28;99528.97;;;9.34;86.98
78685;BME280;68002;52.310;6.990;2023-04-24T03:36:53;99514.31;;;9.30;87.28
78685;BME280;68002;52.310;6.990;2023-04-24T03:39:18;99523.13;;;9.31;87.23
78685;BME280;68002;52.310;6.990;2023-04-24T03:41:43;99515.94;;;9.23;87.31
78685;BME280;68002;52.310;6.990;2023-04-24T03:44:08;99518.97;;;9.28;87.20
78685;BME280;68002;52.310;6.990;2023-04-24T03:46:34;99526.47;;;9.25;87.59
78685;BME280;68002;52.310;6.990;2023-04-24T03:48:59;99523.59;;;9.18;87.03
78685;BME280;68002;52.310;6.990;2023-04-24T03:51:24;99536.47;;;9.23;88.15
78685;BME280;68002;52.310;6.990;2023-04-24T03:53:50;99523.13;;;9.31;86.89
78685;BME280;68002;52.310;6.990;2023-04-24T03:56:15;99527.97;;;9.27;86.40
78685;BME280;68002;52.310;6.990;2023-04-24T03:58:40;99542.97;;;9.28;86.49
78685;BME280;68002;52.310;6.990;2023-04-24T04:01:06;99523.47;;;9.28;86.60
78685;BME280;68002;52.310;6.990;2023-04-24T04:03:31;99529.94;;;9.25;86.03
78685;BME280;68002;52.310;6.990;2023-04-24T04:05:56;99530.78;;;9.26;86.10
78685;BME280;68002;52.310;6.990;2023-04-24T04:08:21;99528.97;;;9.26;86.91
78685;BME280;68002;52.310;6.990;2023-04-24T04:10:46;99535.63;;;9.22;86.61
78685;BME280;68002;52.310;6.990;2023-04-24T04:13:12;99540.78;;;9.24;86.65
78685;BME280;68002;52.310;6.990;2023-04-24T04:15:37;99528.28;;;9.24;86.71
78685;BME280;68002;52.310;6.990;2023-04-24T04:18:02;99535.66;;;9.30;85.82
78685;BME280;68002;52.310;6.990;2023-04-24T04:20:27;99533.81;;;9.31;86.21
78685;BME280;68002;52.310;6.990;2023-04-24T04:22:53;99544.31;;;9.32;85.58
78685;BME280;68002;52.310;6.990;2023-04-24T04:25:18;99551.81;;;9.29;85.45
78685;BME280;68002;52.310;6.990;2023-04-24T04:27:43;99548.84;;;9.32;85.35
78685;BME280;68002;52.310;6.990;2023-04-24T04:30:08;99544.97;;;9.34;85.32
78685;BME280;68002;52.310;6.990;2023-04-24T04:32:34;99548.69;;;9.41;85.38
78685;BME280;68002;52.310;6.990;2023-04-24T04:35:00;99561.19;;;9.41;85.69
78685;BME280;68002;52.310;6.990;2023-04-24T04:37:26;99550.69;;;9.39;85.90
78685;BME280;68002;52.310;6.990;2023-04-24T04:39:51;99562.34;;;9.38;86.51
78685;BME280;68002;52.310;6.990;2023-04-24T04:42:16;99561.50;;;9.38;85.38
78685;BME280;68002;52.310;6.990;2023-04-24T04:44:42;99569.34;;;9.31;86.84
78685;BME280;68002;52.310;6.990;2023-04-24T04:47:07;99566.50;;;9.33;86.60
78685;BME280;68002;52.310;6.990;2023-04-24T04:49:32;99572.34;;;9.36;85.86
78685;BME280;68002;52.310;6.990;2023-04-24T04:51:57;99585.38;;;9.39;85.98
78685;BME280;68002;52.310;6.990;2023-04-24T04:54:23;99580.03;;;9.39;85.99
78685;BME280;68002;52.310;6.990;2023-04-24T04:56:50;99586.38;;;9.38;85.54
78685;BME280;68002;52.310;6.990;2023-04-24T04:59:15;99585.19;;;9.33;85.33
78685;BME280;68002;52.310;6.990;2023-04-24T05:01:40;99572.84;;;9.32;85.40
78685;BME280;68002;52.310;6.990;2023-04-24T05:04:05;99578.00;;;9.33;85.51
78685;BME280;68002;52.310;6.990;2023-04-24T05:06:31;99582.34;;;9.26;85.88
78685;BME280;68002;52.310;6.990;2023-04-24T05:08:56;99585.00;;;9.34;85.70
78685;BME280;68002;52.310;6.990;2023-04-24T05:11:21;99589.03;;;9.38;84.67
78685;BME280;68002;52.310;6.990;2023-04-24T05:13:46;99568.66;;;9.29;85.08
78685;BME280;68002;52.310;6.990;2023-04-24T05:16:11;99580.34;;;9.36;85.16
78685;BME280;68002;52.310;6.990;2023-04-24T05:18:37;99595.72;;;9.42;85.46
78685;BME280;68002;52.310;6.990;2023-04-24T05:21:02;99599.25;;;9.51;84.89
78685;BME280;68002;52.310;6.990;2023-04-24T05:23:27;99595.25;;;9.47;85.04
78685;BME280;68002;52.310;6.990;2023-04-24T05:25:52;99596.56;;;9.51;84.55
78685;BME280;68002;52.310;6.990;2023-04-24T05:28:18;99585.91;;;9.51;83.70
78685;BME280;68002;52.310;6.990;2023-04-24T05:30:43;99597.91;;;9.47;85.11
78685;BME280;68002;52.310;6.990;2023-04-24T05:33:08;99602.41;;;9.46;84.82
78685;BME280;68002;52.310;6.990;2023-04-24T05:35:33;99604.75;;;9.49;84.75
78685;BME280;68002;52.310;6.990;2023-04-24T05:37:59;99608.09;;;9.51;84.26
78685;BME280;68002;52.310;6.990;2023-04-24T05:40:24;99619.78;;;9.50;84.29
78685;BME280;68002;52.310;6.990;2023-04-24T05:42:49;99604.41;;;9.52;84.83
78685;BME280;68002;52.310;6.990;2023-04-24T05:45:14;99607.59;;;9.48;84.71
78685;BME280;68002;52.310;6.990;2023-04-24T05:47:39;99611.28;;;9.47;84.80
78685;BME280;68002;52.310;6.990;2023-04-24T05:50:05;99613.09;;;9.54;83.47
78685;BME280;68002;52.310;6.990;2023-04-24T05:52:30;99616.28;;;9.50;84.09
78685;BME280;68002;52.310;6.990;2023-04-24T05:54:56;99615.09;;;9.44;85.12
78685;BME280;68002;52.310;6.990;2023-04-24T05:57:21;99610.06;;;9.41;85.46
78685;BME280;68002;52.310;6.990;2023-04-24T05:59:46;99627.06;;;9.40;85.03
78685;BME280;68002;52.310;6.990;2023-04-24T06:02:11;99615.56;;;9.40;85.58
78685;BME280;68002;52.310;6.990;2023-04-24T06:04:37;99620.59;;;9.43;85.63
78685;BME280;68002;52.310;6.990;2023-04-24T06:07:02;99624.56;;;9.39;85.68
78685;BME280;68002;52.310;6.990;2023-04-24T06:09:27;99628.09;;;9.39;85.72
78685;BME280;68002;52.310;6.990;2023-04-24T06:11:52;99627.75;;;9.42;85.95
78685;BME280;68002;52.310;6.990;2023-04-24T06:14:18;99626.41;;;9.38;85.89
78685;BME280;68002;52.310;6.990;2023-04-24T06:16:43;99628.09;;;9.39;85.43
78685;BME280;68002;52.310;6.990;2023-04-24T06:19:09;99626.41;;;9.38;85.23
78685;BME280;68002;52.310;6.990;2023-04-24T06:21:34;99626.44;;;9.46;85.44
78685;BME280;68002;52.310;6.990;2023-04-24T06:23:59;99624.91;;;9.44;85.44
78685;BME280;68002;52.310;6.990;2023-04-24T06:26:25;99649.16;;;9.50;84.44
78685;BME280;68002;52.310;6.990;2023-04-24T06:28:50;99628.78;;;9.49;84.19
78685;BME280;68002;52.310;6.990;2023-04-24T06:31:16;99631.28;;;9.51;85.67
78685;BME280;68002;52.310;6.990;2023-04-24T06:33:41;99637.97;;;9.55;84.78
78685;BME280;68002;52.310;6.990;2023-04-24T06:36:06;99630.13;;;9.53;85.04
78685;BME280;68002;52.310;6.990;2023-04-24T06:38:32;99646.81;;;9.55;85.18
78685;BME280;68002;52.310;6.990;2023-04-24T06:40:57;99633.25;;;9.49;84.49
78685;BME280;68002;52.310;6.990;2023-04-24T06:43:22;99631.44;;;9.49;85.99
78685;BME280;68002;52.310;6.990;2023-04-24T06:45:47;99638.78;;;9.47;85.37
78685;BME280;68002;52.310;6.990;2023-04-24T06:48:13;99650.47;;;9.54;85.10
78685;BME280;68002;52.310;6.990;2023-04-24T06:50:38;99635.97;;;9.57;84.59
78685;BME280;68002;52.310;6.990;2023-04-24T06:53:03;99640.84;;;9.61;84.70
78685;BME280;68002;52.310;6.990;2023-04-24T06:55:28;99638.69;;;9.65;85.29
78685;BME280;68002;52.310;6.990;2023-04-24T06:57:54;99636.53;;;9.68;84.67
78685;BME280;68002;52.310;6.990;2023-04-24T07:00:19;99639.50;;;9.65;85.13
78685;BME280;68002;52.310;6.990;2023-04-24T07:02:44;99645.84;;;9.64;85.40
78685;BME280;68002;52.310;6.990;2023-04-24T07:05:10;99640.97;;;9.60;84.52
78685;BME280;68002;52.310;6.990;2023-04-24T07:07:35;99634.63;;;9.53;85.30
78685;BME280;68002;52.310;6.990;2023-04-24T07:10:00;99644.94;;;9.48;85.77
78685;BME280;68002;52.310;6.990;2023-04-24T07:12:26;99640.25;;;9.42;85.41
78685;BME280;68002;52.310;6.990;2023-04-24T07:14:51;99636.03;;;9.31;87.01
78685;BME280;68002;52.310;6.990;2023-04-24T07:17:16;99654.66;;;9.23;88.01
78685;BME280;68002;52.310;6.990;2023-04-24T07:19:42;99656.00;;;9.19;87.42
78685;BME280;68002;52.310;6.990;2023-04-24T07:22:07;99648.28;;;9.08;87.37
78685;BME280;68002;52.310;6.990;2023-04-24T07:24:33;99665.75;;;9.02;88.86
78685;BME280;68002;52.310;6.990;2023-04-24T07:26:58;99667.06;;;8.98;88.93
78685;BME280;68002;52.310;6.990;2023-04-24T07:29:24;99658.19;;;8.90;89.72
78685;BME280;68002;52.310;6.990;2023-04-24T07:31:49;99658.63;;;8.85;89.94
78685;BME280;68002;52.310;6.990;2023-04-24T07:34:14;99665.59;;;8.78;89.52
78685;BME280;68002;52.310;6.990;2023-04-24T07:36:41;99674.44;;;8.79;89.31
78685;BME280;68002;52.310;6.990;2023-04-24T07:39:06;99669.25;;;8.77;89.97
78685;BME280;68002;52.310;6.990;2023-04-24T07:41:32;99677.41;;;8.76;90.16
78685;BME280;68002;52.310;6.990;2023-04-24T07:43:58;99670.69;;;8.72;90.95
78685;BME280;68002;52.310;6.990;2023-04-24T07:46:23;99678.84;;;8.70;90.76
78685;BME280;68002;52.310;6.990;2023-04-24T07:48:49;99678.16;;;8.68;90.05
78685;BME280;68002;52.310;6.990;2023-04-24T07:51:15;99687.84;;;8.69;90.63
78685;BME280;68002;52.310;6.990;2023-04-24T07:53:41;99687.34;;;8.66;90.34
78685;BME280;68002;52.310;6.990;2023-04-24T07:56:06;99684.16;;;8.62;91.04
78685;BME280;68002;52.310;6.990;2023-04-24T07:58:31;99690.44;;;8.61;90.58
78685;BME280;68002;52.310;6.990;2023-04-24T08:00:56;99680.63;;;8.62;90.60
78685;BME280;68002;52.310;6.990;2023-04-24T08:03:22;99694.66;;;8.64;90.85
78685;BME280;68002;52.310;6.990;2023-04-24T08:05:47;99705.16;;;8.65;90.82
78685;BME280;68002;52.310;6.990;2023-04-24T08:08:13;99706.88;;;8.74;91.21
78685;BME280;68002;52.310;6.990;2023-04-24T08:10:38;99702.31;;;8.67;90.22
78685;BME280;68002;52.310;6.990;2023-04-24T08:13:03;99713.84;;;8.67;90.54
78685;BME280;68002;52.310;6.990;2023-04-24T08:15:28;99704.47;;;8.63;91.28
78685;BME280;68002;52.310;6.990;2023-04-24T08:17:54;99713.75;;;8.59;91.59
78685;BME280;68002;52.310;6.990;2023-04-24T08:20:19;99716.13;;;8.62;90.96
78685;BME280;68002;52.310;6.990;2023-04-24T08:22:44;99720.28;;;8.65;91.39
78685;BME280;68002;52.310;6.990;2023-04-24T08:25:10;99719.59;;;8.63;91.08
78685;BME280;68002;52.310;6.990;2023-04-24T08:27:36;99728.66;;;8.70;90.89
78685;BME280;68002;52.310;6.990;2023-04-24T08:30:02;99735.69;;;8.71;91.00
78685;BME280;68002;52.310;6.990;2023-04-24T08:32:27;99734.69;;;8.72;91.90
78685;BME280;68002;52.310;6.990;2023-04-24T08:34:53;99744.66;;;8.70;91.72
78685;BME280;68002;52.310;6.990;2023-04-24T08:37:18;99733.53;;;8.74;91.71
78685;BME280;68002;52.310;6.990;2023-04-24T08:39:43;99734.91;;;8.78;91.88
78685;BME280;68002;52.310;6.990;2023-04-24T08:42:08;99747.94;;;8.81;91.84
78685;BME280;68002;52.310;6.990;2023-04-24T08:44:36;99745.09;;;8.83;91.85
78685;BME280;68002;52.310;6.990;2023-04-24T08:47:04;99747.94;;;8.81;92.15
78685;BME280;68002;52.310;6.990;2023-04-24T08:49:30;99749.63;;;8.82;92.11
78685;BME280;68002;52.310;6.990;2023-04-24T08:51:56;99751.66;;;8.88;92.33
78685;BME280;68002;52.310;6.990;2023-04-24T08:54:21;99741.50;;;8.92;92.29
78685;BME280;68002;52.310;6.990;2023-04-24T08:56:48;99756.44;;;9.02;91.98
78685;BME280;68002;52.310;6.990;2023-04-24T08:59:16;99741.91;;;8.97;91.53
78685;BME280;68002;52.310;6.990;2023-04-24T09:01:42;99746.97;;;9.08;91.33
78685;BME280;68002;52.310;6.990;2023-04-24T09:04:10;99759.66;;;9.14;92.09
78685;BME280;68002;52.310;6.990;2023-04-24T09:06:35;99762.84;;;9.18;91.40
78685;BME280;68002;52.310;6.990;2023-04-24T09:09:01;99761.72;;;9.20;91.17
78685;BME280;68002;52.310;6.990;2023-04-24T09:11:27;99761.41;;;9.23;91.87
78685;BME280;68002;52.310;6.990;2023-04-24T09:13:56;99764.91;;;9.24;92.00
78685;BME280;68002;52.310;6.990;2023-04-24T09:16:21;99773.16;;;9.30;91.81
78685;BME280;68002;52.310;6.990;2023-04-24T09:18:46;99773.97;;;9.31;91.08
78685;BME280;68002;52.310;6.990;2023-04-24T09:21:11;99782.28;;;9.28;90.78
78685;BME280;68002;52.310;6.990;2023-04-24T09:23:38;99786.16;;;9.33;90.70
78685;BME280;68002;52.310;6.990;2023-04-24T09:26:03;99789.69;;;9.34;90.42
78685;BME280;68002;52.310;6.990;2023-04-24T09:28:35;99786.31;;;9.32;91.57
78685;BME280;68002;52.310;6.990;2023-04-24T09:33:32;99793.50;;;9.31;90.82
78685;BME280;68002;52.310;6.990;2023-04-24T09:35:57;99800.81;;;9.29;91.26
78685;BME280;68002;52.310;6.990;2023-04-24T09:38:35;99802.00;;;9.35;90.16
78685;BME280;68002;52.310;6.990;2023-04-24T09:41:06;99812.75;;;9.43;88.85
78685;BME280;68002;52.310;6.990;2023-04-24T09:43:32;99822.69;;;9.33;89.63
78685;BME280;68002;52.310;6.990;2023-04-24T09:45:58;99833.84;;;9.28;89.79
78685;BME280;68002;52.310;6.990;2023-04-24T09:48:35;99851.81;;;9.26;89.75
78685;BME280;68002;52.310;6.990;2023-04-24T09:51:01;99852.22;;;9.13;90.36
78685;BME280;68002;52.310;6.990;2023-04-24T09:53:27;99854.22;;;9.11;87.92
78685;BME280;68002;52.310;6.990;2023-04-24T09:55:53;99876.91;;;8.98;90.41
78685;BME280;68002;52.310;6.990;2023-04-24T09:58:24;99878.72;;;8.97;87.79
78685;BME280;68002;52.310;6.990;2023-04-24T10:00:53;99873.25;;;8.81;88.22
78685;BME280;68002;52.310;6.990;2023-04-24T10:03:18;99883.91;;;8.81;87.74
78685;BME280;68002;52.310;6.990;2023-04-24T10:05:46;99895.28;;;8.83;87.09
78685;BME280;68002;52.310;6.990;2023-04-24T10:08:12;99904.72;;;8.78;87.63
78685;BME280;68002;52.310;6.990;2023-04-24T10:10:40;99909.72;;;8.63;89.13
78685;BME280;68002;52.310;6.990;2023-04-24T10:13:07;99921.31;;;8.72;88.54
78685;BME280;68002;52.310;6.990;2023-04-24T10:15:32;99921.03;;;8.75;88.73
78685;BME280;68002;52.310;6.990;2023-04-24T10:17:58;99920.31;;;8.73;89.65
78685;BME280;68002;52.310;6.990;2023-04-24T10:20:27;99935.63;;;8.71;89.81
78685;BME280;68002;52.310;6.990;2023-04-24T10:22:53;99937.44;;;8.70;90.04
78685;BME280;68002;52.310;6.990;2023-04-24T10:25:27;99934.72;;;8.80;88.56
78685;BME280;68002;52.310;6.990;2023-04-24T10:27:53;99942.72;;;8.80;89.01
78685;BME280;68002;52.310;6.990;2023-04-24T10:30:19;99942.41;;;8.83;89.89
78685;BME280;68002;52.310;6.990;2023-04-24T10:32:45;99948.97;;;8.88;88.84
78685;BME280;68002;52.310;6.990;2023-04-24T10:35:15;99953.28;;;8.99;88.65
78685;BME280;68002;52.310;6.990;2023-04-24T10:37:45;99964.09;;;8.97;88.68
78685;BME280;68002;52.310;6.990;2023-04-24T10:40:11;99968.59;;;8.97;89.64
78685;BME280;68002;52.310;6.990;2023-04-24T10:42:40;99973.31;;;9.03;89.73
78685;BME280;68002;52.310;6.990;2023-04-24T10:45:06;99967.38;;;9.09;89.79
78685;BME280;68002;52.310;6.990;2023-04-24T10:47:40;99968.75;;;9.13;88.58
78685;BME280;68002;52.310;6.990;2023-04-24T10:50:09;99977.91;;;9.10;88.78
78685;BME280;68002;52.310;6.990;2023-04-24T10:52:45;99984.47;;;9.16;88.23
78685;BME280;68002;52.310;6.990;2023-04-24T10:55:12;99982.81;;;9.15;87.24
78685;BME280;68002;52.310;6.990;2023-04-24T10:57:38;99986.06;;;9.09;88.55
78685;BME280;68002;52.310;6.990;2023-04-24T11:00:20;100003.75;;;9.10;88.72
78685;BME280;68002;52.310;6.990;2023-04-24T11:02:46;100009.91;;;9.10;88.75
78685;BME280;68002;52.310;6.990;2023-04-24T11:05:14;100004.72;;;9.09;87.96
78685;BME280;68002;52.310;6.990;2023-04-24T11:08:15;100011.31;;;9.14;86.53
78685;BME280;68002;52.310;6.990;2023-04-24T11:10:44;100019.13;;;8.98;89.11
78685;BME280;68002;52.310;6.990;2023-04-24T11:13:10;100035.13;;;8.98;87.73
78685;BME280;68002;52.310;6.990;2023-04-24T11:15:35;100034.75;;;8.93;86.42
78685;BME280;68002;52.310;6.990;2023-04-24T11:18:00;100042.63;;;8.85;87.44
78685;BME280;68002;52.310;6.990;2023-04-24T11:20:26;100053.72;;;8.81;87.60
78685;BME280;68002;52.310;6.990;2023-04-24T11:22:53;100016.81;;;8.86;84.86
78685;BME280;68002;52.310;6.990;2023-04-24T11:25:18;100060.78;;;8.72;86.00
78685;BME280;68002;52.310;6.990;2023-04-24T11:27:44;100068.13;;;8.61;84.16
78685;BME280;68002;52.310;6.990;2023-04-24T11:30:10;100076.59;;;8.47;85.48
78685;BME280;68002;52.310;6.990;2023-04-24T11:32:37;100069.97;;;8.51;86.89
78685;BME280;68002;52.310;6.990;2023-04-24T11:37:46;100076.97;;;8.61;87.12
78685;BME280;68002;52.310;6.990;2023-04-24T11:40:13;100076.34;;;8.77;86.85
78685;BME280;68002;52.310;6.990;2023-04-24T11:42:40;100079.41;;;8.82;85.71
78685;BME280;68002;52.310;6.990;2023-04-24T11:45:10;100085.06;;;8.79;86.75
78685;BME280;68002;52.310;6.990;2023-04-24T11:47:36;100087.41;;;8.82;87.76
78685;BME280;68002;52.310;6.990;2023-04-24T11:50:03;100079.66;;;8.88;86.94
78685;BME280;68002;52.310;6.990;2023-04-24T11:52:33;100080.81;;;8.86;86.34
78685;BME280;68002;52.310;6.990;2023-04-24T11:55:01;100107.41;;;8.95;85.63
78685;BME280;68002;52.310;6.990;2023-04-24T11:57:26;100113.78;;;8.85;86.93
78685;BME280;68002;52.310;6.990;2023-04-24T11:59:52;100116.56;;;8.93;84.59
78685;BME280;68002;52.310;6.990;2023-04-24T12:02:24;100121.34;;;8.89;84.32
78685;BME280;68002;52.310;6.990;2023-04-24T12:04:50;100118.31;;;8.84;85.23
78685;BME280;68002;52.310;6.990;2023-04-24T12:07:15;100121.94;;;8.83;84.13
78685;BME280;68002;52.310;6.990;2023-04-24T12:09:41;100134.00;;;8.87;84.16
78685;BME280;68002;52.310;6.990;2023-04-24T12:12:07;100125.53;;;8.92;80.79
78685;BME280;68002;52.310;6.990;2023-04-24T12:14:32;100141.31;;;8.85;82.21
78685;BME280;68002;52.310;6.990;2023-04-24T12:16:57;100129.09;;;8.83;80.80
78685;BME280;68002;52.310;6.990;2023-04-24T12:19:23;100137.63;;;8.86;79.64
78685;BME280;68002;52.310;6.990;2023-04-24T12:22:03;100143.66;;;8.88;80.06
78685;BME280;68002;52.310;6.990;2023-04-24T12:24:29;100149.69;;;8.90;80.16
78685;BME280;68002;52.310;6.990;2023-04-24T12:26:54;100142.25;;;8.94;79.07
78685;BME280;68002;52.310;6.990;2023-04-24T12:29:20;100153.19;;;9.00;78.91
78685;BME280;68002;52.310;6.990;2023-04-24T12:31:45;100149.78;;;9.08;77.84
78685;BME280;68002;52.310;6.990;2023-04-24T12:34:22;100165.88;;;9.16;79.06
78685;BME280;68002;52.310;6.990;2023-04-24T12:36:47;100163.53;;;9.40;75.77
78685;BME280;68002;52.310;6.990;2023-04-24T12:39:17;100173.97;;;9.34;78.65
78685;BME280;68002;52.310;6.990;2023-04-24T12:42:00;100186.97;;;9.46;76.79
78685;BME280;68002;52.310;6.990;2023-04-24T12:44:30;100170.81;;;9.48;75.22
78685;BME280;68002;52.310;6.990;2023-04-24T12:46:55;100170.78;;;9.57;76.33
78685;BME280;68002;52.310;6.990;2023-04-24T12:49:21;100170.22;;;9.54;76.85
78685;BME280;68002;52.310;6.990;2023-04-24T12:51:46;100174.38;;;9.66;74.20
78685;BME280;68002;52.310;6.990;2023-04-24T12:54:11;100175.81;;;9.78;74.98
78685;BME280;68002;52.310;6.990;2023-04-24T12:56:36;100186.59;;;9.86;74.65
78685;BME280;68002;52.310;6.990;2023-04-24T12:59:01;100183.19;;;9.93;76.42
78685;BME280;68002;52.310;6.990;2023-04-24T13:01:27;100187.66;;;10.20;74.46
78685;BME280;68002;52.310;6.990;2023-04-24T13:03:52;100185.22;;;10.27;73.56
78685;BME280;68002;52.310;6.990;2023-04-24T13:06:17;100187.53;;;10.22;72.80